Map

Track Data

SID SEASON NUMBER BASIN SUBBASIN NAME ISO_TIME NATURE LAT LON WMO_WIND WMO_PRES WMO_AGENCY TRACK_TYPE DIST2LAND LANDFALL IFLAG USA_AGENCY USA_ATCF_ID USA_LAT USA_LON USA_RECORD USA_STATUS USA_WIND USA_PRES USA_SSHS USA_R34_NE USA_R34_SE USA_R34_SW USA_R34_NW USA_R50_NE USA_R50_SE USA_R50_SW USA_R50_NW USA_R64_NE USA_R64_SE USA_R64_SW USA_R64_NW USA_POCI USA_ROCI USA_RMW USA_EYE TOKYO_LAT TOKYO_LON TOKYO_GRADE TOKYO_WIND TOKYO_PRES TOKYO_R50_DIR TOKYO_R50_LONG TOKYO_R50_SHORT TOKYO_R30_DIR TOKYO_R30_LONG TOKYO_R30_SHORT TOKYO_LAND CMA_LAT CMA_LON CMA_CAT CMA_WIND CMA_PRES HKO_LAT HKO_LON HKO_CAT HKO_WIND HKO_PRES NEWDELHI_LAT NEWDELHI_LON NEWDELHI_GRADE NEWDELHI_WIND NEWDELHI_PRES NEWDELHI_CI NEWDELHI_DP NEWDELHI_POCI REUNION_LAT REUNION_LON REUNION_TYPE REUNION_WIND REUNION_PRES REUNION_TNUM REUNION_CI REUNION_RMW REUNION_R34_NE REUNION_R34_SE REUNION_R34_SW REUNION_R34_NW REUNION_R50_NE REUNION_R50_SE REUNION_R50_SW REUNION_R50_NW REUNION_R64_NE REUNION_R64_SE REUNION_R64_SW REUNION_R64_NW BOM_LAT BOM_LON BOM_TYPE BOM_WIND BOM_PRES BOM_TNUM BOM_CI BOM_RMW BOM_R34_NE BOM_R34_SE BOM_R34_SW BOM_R34_NW BOM_R50_NE BOM_R50_SE BOM_R50_SW BOM_R50_NW BOM_R64_NE BOM_R64_SE BOM_R64_SW BOM_R64_NW BOM_ROCI BOM_POCI BOM_EYE BOM_POS_METHOD BOM_PRES_METHOD NADI_LAT NADI_LON NADI_CAT NADI_WIND NADI_PRES WELLINGTON_LAT WELLINGTON_LON WELLINGTON_WIND WELLINGTON_PRES DS824_LAT DS824_LON DS824_STAGE DS824_WIND DS824_PRES TD9636_LAT TD9636_LON TD9636_STAGE TD9636_WIND TD9636_PRES TD9635_LAT TD9635_LON TD9635_WIND TD9635_PRES TD9635_ROCI NEUMANN_LAT NEUMANN_LON NEUMANN_CLASS NEUMANN_WIND NEUMANN_PRES MLC_LAT MLC_LON MLC_CLASS MLC_WIND MLC_PRES USA_GUST BOM_GUST BOM_GUST_PER REUNION_GUST REUNION_GUST_PER USA_SEAHGT USA_SEARAD_NE USA_SEARAD_SE USA_SEARAD_SW USA_SEARAD_NW STORM_SPEED STORM_DIR
1868071S15066 1868 7 SI MM NOT_NAMED 1868-03-11 06:00:00 NR -14.8000 65.9000 reunion spur-split 1052 1043 _____O________ -1 -14.8000 65.9000 99 9.90000 2 243
1868071S15066 1868 7 SI MM NOT_NAMED 1868-03-11 09:00:00 NR -14.8434 65.8123 spur-split 1043 1028 _____P________ -1 -14.8434 65.8123 99 2 243
1868071S15066 1868 7 SI MM NOT_NAMED 1868-03-11 12:00:00 NR -14.8885 65.7199 spur-split 1028 1019 _____P________ -1 -14.8885 65.7199 99 2 244
1868071S15066 1868 7 SI MM NOT_NAMED 1868-03-11 15:00:00 NR -14.9374 65.6180 spur-split 1019 1004 _____P________ -1 -14.9374 65.6180 99 2 244
1868071S15066 1868 7 SI MM NOT_NAMED 1868-03-11 18:00:00 NR -14.9917 65.5019 spur-split 1004 995 _____P________ -1 -14.9917 65.5019 99 3 245
1868071S15066 1868 7 SI MM NOT_NAMED 1868-03-11 21:00:00 NR -15.0533 65.3668 spur-split 989 971 _____P________ -1 -15.0533 65.3668 99 3 245
1868071S15066 1868 7 SI MM NOT_NAMED 1868-03-12 00:00:00 NR -15.1240 65.2080 spur-split 971 947 _____P________ -1 -15.1240 65.2080 99 4 245
1868071S15066 1868 7 SI MM NOT_NAMED 1868-03-12 03:00:00 NR -15.2057 65.0207 spur-split 947 924 _____P________ -1 -15.2057 65.0207 99 4 246
1868071S15066 1868 7 SI MM NOT_NAMED 1868-03-12 06:00:00 NR -15.3000 64.8000 reunion spur-split 924 900 _____O________ -1 -15.3000 64.8000 99 9.90000 5 246
1868071S15066 1868 7 SI MM NOT_NAMED 1868-03-12 09:00:00 NR -15.4081 64.5430 spur-split 891 867 _____P________ -1 -15.4081 64.5430 99 6 247
1868071S15066 1868 7 SI MM NOT_NAMED 1868-03-12 12:00:00 NR -15.5285 64.2541 spur-split 867 828 _____P________ -1 -15.5285 64.2541 99 6 247
1868071S15066 1868 7 SI MM NOT_NAMED 1868-03-12 15:00:00 NR -15.6593 63.9395 spur-split 820 787 _____P________ -1 -15.6593 63.9395 99 7 247
1868071S15066 1868 7 SI MM NOT_NAMED 1868-03-12 18:00:00 NR -15.7985 63.6054 spur-split 787 755 _____P________ -1 -15.7985 63.6054 99 7 247
1868071S15066 1868 7 SI MM NOT_NAMED 1868-03-12 21:00:00 NR -15.9440 63.2581 spur-split 755 708 _____P________ -1 -15.9440 63.2581 99 7 246
1868071S15066 1868 7 SI MM NOT_NAMED 1868-03-13 00:00:00 NR -16.0941 62.9039 spur-split 708 677 _____P________ -1 -16.0941 62.9039 99 7 246
1868071S15066 1868 7 SI MM NOT_NAMED 1868-03-13 03:00:00 NR -16.2467 62.5491 spur-split 668 630 _____P________ -1 -16.2467 62.5491 99 7 246
1868071S15066 1868 7 SI MM NOT_NAMED 1868-03-13 06:00:00 NR -16.4000 62.2000 reunion spur-split 630 598 _____O________ -1 -16.4000 62.2000 99 9.90000 7 246
1868071S15066 1868 7 SI MM NOT_NAMED 1868-03-13 09:00:00 NR -16.5335 61.8804 spur-split 598 560 _____P________ -1 -16.5335 61.8804 99 7 246
1868071S15066 1868 7 SI MM NOT_NAMED 1868-03-13 12:00:00 NR -16.6679 61.5627 spur-split 560 529 _____P________ -1 -16.6679 61.5627 99 7 246
1868071S15066 1868 7 SI MM NOT_NAMED 1868-03-13 15:00:00 NR -16.8050 61.2470 spur-split 522 499 _____P________ -1 -16.8050 61.2470 99 7 245
1868071S15066 1868 7 SI MM NOT_NAMED 1868-03-13 18:00:00 NR -16.9468 60.9334 spur-split 491 453 _____P________ -1 -16.9468 60.9334 99 7 244
1868071S15066 1868 7 SI MM NOT_NAMED 1868-03-13 21:00:00 NR -17.0952 60.6219 spur-split 453 424 _____P________ -1 -17.0952 60.6219 99 7 243
1868071S15066 1868 7 SI MM NOT_NAMED 1868-03-14 00:00:00 NR -17.2523 60.3125 spur-split 416 387 _____P________ -1 -17.2523 60.3125 99 7 241
1868071S15066 1868 7 SI MM NOT_NAMED 1868-03-14 03:00:00 NR -17.4199 60.0052 spur-split 387 350 _____P________ -1 -17.4199 60.0052 99 7 239
1868071S15066 1868 7 SI MM NOT_NAMED 1868-03-14 06:00:00 NR -17.6000 59.7000 reunion spur-split 350 313 _____O________ -1 -17.6000 59.7000 99 9.90000 7 240
1868071S15066 1868 7 SI MM NOT_NAMED 1868-03-14 09:00:00 NR -17.7743 59.3704 spur-split 313 286 _____P________ -1 -17.7743 59.3704 99 7 240
1868071S15066 1868 7 SI MM NOT_NAMED 1868-03-14 12:00:00 NR -17.9585 59.0399 spur-split 271 247 _____P________ -1 -17.9585 59.0399 99 7 239
1868071S15066 1868 7 SI MM NOT_NAMED 1868-03-14 15:00:00 NR -18.1549 58.7132 spur-split 237 203 _____P________ -1 -18.1549 58.7132 99 7 236
1868071S15066 1868 7 SI MM NOT_NAMED 1868-03-14 18:00:00 NR -18.3658 58.3950 spur-split 203 172 _____P________ -1 -18.3658 58.3950 99 7 233
1868071S15066 1868 7 SI MM NOT_NAMED 1868-03-14 21:00:00 NR -18.5933 58.0898 spur-split 172 145 _____P________ -1 -18.5933 58.0898 99 7 230
1868071S15066 1868 7 SI MM NOT_NAMED 1868-03-15 00:00:00 NR -18.8400 57.8025 spur-split 145 111 _____P________ -1 -18.8400 57.8025 99 7 225
1868071S15066 1868 7 SI MM NOT_NAMED 1868-03-15 03:00:00 NR -19.1081 57.5376 spur-split 111 81 _____P________ -1 -19.1081 57.5376 99 7 220
1868071S15066 1868 7 SI MM NOT_NAMED 1868-03-15 06:00:00 NR -19.4000 57.3000 reunion spur-split 81 61 _____O________ -1 -19.4000 57.3000 99 9.90000 7 216
1868071S15066 1868 7 SI MM NOT_NAMED 1868-03-15 09:00:00 NR -19.6997 57.0737 spur-split 61 56 _____P________ -1 -19.6997 57.0737 99 7 213
1868071S15066 1868 7 SI MM NOT_NAMED 1868-03-15 12:00:00 NR -20.0225 56.8714 spur-split 62 56 _____P________ -1 -20.0225 56.8714 99 8 208
1868071S15066 1868 7 SI MM NOT_NAMED 1868-03-15 15:00:00 NR -20.3677 56.6939 spur-split 63 63 _____P________ -1 -20.3677 56.6939 99 8 204
1868071S15066 1868 7 SI MM NOT_NAMED 1868-03-15 18:00:00 NR -20.7344 56.5417 spur-split 85 62 _____P________ -1 -20.7344 56.5417 99 8 199
1868071S15066 1868 7 SI MM NOT_NAMED 1868-03-15 21:00:00 NR -21.1218 56.4155 spur-split 62 52 _____P________ -1 -21.1218 56.4155 99 8 195
1868071S15066 1868 7 SI MM NOT_NAMED 1868-03-16 00:00:00 NR -21.5291 56.3160 spur-split 56 56 _____P________ -1 -21.5291 56.3160 99 9 191
1868071S15066 1868 7 SI MM NOT_NAMED 1868-03-16 03:00:00 NR -21.9554 56.2439 spur-split 88 88 _____P________ -1 -21.9554 56.2439 99 9 187
1868071S15066 1868 7 SI MM NOT_NAMED 1868-03-16 06:00:00 NR -22.4000 56.2000 reunion spur-split 127 127 _____O________ -1 -22.4000 56.2000 99 9.90000 10 183
1868071S15066 1868 7 SI MM NOT_NAMED 1868-03-16 09:00:00 NR -22.9067 56.1820 spur-split 178 178 _____P________ -1 -22.9067 56.1820 99 10 181
1868071S15066 1868 7 SI MM NOT_NAMED 1868-03-16 12:00:00 NR -23.4414 56.1965 spur-split 231 231 _____P________ -1 -23.4414 56.1965 99 11 177
1868071S15066 1868 7 SI MM NOT_NAMED 1868-03-16 15:00:00 NR -23.9890 56.2370 spur-split 297 297 _____P________ -1 -23.9890 56.2370 99 11 175
1868071S15066 1868 7 SI MM NOT_NAMED 1868-03-16 18:00:00 NR -24.5347 56.2971 spur-split 353 353 _____P________ -1 -24.5347 56.2971 99 11 174
1868071S15066 1868 7 SI MM NOT_NAMED 1868-03-16 21:00:00 NR -25.0635 56.3703 spur-split 421 421 _____P________ -1 -25.0635 56.3703 99 10 173
1868071S15066 1868 7 SI MM NOT_NAMED 1868-03-17 00:00:00 NR -25.5606 56.4498 spur-split 476 476 _____P________ -1 -25.5606 56.4498 99 10 171
1868071S15066 1868 7 SI MM NOT_NAMED 1868-03-17 03:00:00 NR -26.0111 56.5287 spur-split 522 522 _____P________ -1 -26.0111 56.5287 99 9 171
1868071S15066 1868 7 SI MM NOT_NAMED 1868-03-17 06:00:00 NR -26.4000 56.6000 reunion spur-split 567 567 _____O________ -1 -26.4000 56.6000 99 9.90000 7 170
1868071S15066 1868 7 SI MM NOT_NAMED 1868-03-17 09:00:00 NR -26.7167 56.6580 spur-split 602 602 _____P________ -1 -26.7167 56.6580 99 6 171
1868071S15066 1868 7 SI MM NOT_NAMED 1868-03-17 12:00:00 NR -26.9666 56.7029 spur-split 635 635 _____P________ -1 -26.9666 56.7029 99 5 172
1868071S15066 1868 7 SI MM NOT_NAMED 1868-03-17 15:00:00 NR -27.1594 56.7366 spur-split 657 657 _____P________ -1 -27.1594 56.7366 99 3 171
1868071S15066 1868 7 SI MM NOT_NAMED 1868-03-17 18:00:00 NR -27.3046 56.7607 spur-split 670 670 _____P________ -1 -27.3046 56.7607 99 3 170
1868071S15066 1868 7 SI MM NOT_NAMED 1868-03-17 21:00:00 NR -27.4117 56.7773 spur-split 681 681 _____P________ -1 -27.4117 56.7773 99 2 0
1868071S15066 1868 7 SI MM NOT_NAMED 1868-03-18 00:00:00 NR -27.4903 56.7880 spur-split 692 692 _____P________ -1 -27.4903 56.7880 99 1 0
1868071S15066 1868 7 SI MM NOT_NAMED 1868-03-18 03:00:00 NR -27.5499 56.7950 spur-split 692 692 _____P________ -1 -27.5499 56.7950 99 1 168
1868071S15066 1868 7 SI MM NOT_NAMED 1868-03-18 06:00:00 NR -27.6000 56.8000 reunion spur-split 703 _____O________ -1 -27.6000 56.8000 99 9.90000 1 154

About IBTrACS Database

This database is a web-friendly format of International Best Track Archive for Climate Stewardship (IBTrACS), a global best track data archive curated by NOAA dating back to 1842.

Updated: 2021-10-08